createdAt,value
2023-03-20T00:00:28.823Z,10.34
2023-03-20T00:01:28.842Z,10.38
2023-03-20T00:02:28.824Z,10.41
2023-03-20T00:03:28.837Z,10.45
2023-03-20T00:04:29.664Z,10.48
2023-03-20T00:05:28.758Z,10.51
2023-03-20T00:06:28.762Z,10.55
2023-03-20T00:07:29.439Z,10.57
2023-03-20T00:08:29.792Z,10.60
2023-03-20T00:09:29.430Z,10.63
2023-03-20T00:10:29.397Z,10.66
2023-03-20T00:11:29.394Z,10.68
2023-03-20T00:12:29.399Z,10.72
2023-03-20T00:13:29.349Z,10.75
2023-03-20T00:14:29.361Z,10.76
2023-03-20T00:15:29.353Z,10.78
2023-03-20T00:16:29.398Z,10.80
2023-03-20T00:17:28.649Z,10.81
2023-03-20T00:18:29.299Z,10.83
2023-03-20T00:19:29.302Z,10.85
2023-03-20T00:20:31.572Z,10.88
2023-03-20T00:21:29.292Z,10.89
2023-03-20T00:22:29.270Z,10.90
2023-03-20T00:23:28.608Z,10.91
2023-03-20T00:24:28.579Z,10.90
2023-03-20T00:25:29.260Z,10.90
2023-03-20T00:26:28.549Z,10.89
2023-03-20T00:27:28.572Z,10.88
2023-03-20T00:28:29.190Z,10.87
2023-03-20T00:29:30.482Z,10.85
2023-03-20T00:30:28.534Z,10.84
2023-03-20T00:31:29.212Z,10.82
2023-03-20T00:32:29.169Z,10.79
2023-03-20T00:33:29.131Z,10.78
2023-03-20T00:34:28.459Z,10.76
2023-03-20T00:35:28.441Z,10.74
2023-03-20T00:36:28.477Z,10.74
2023-03-20T00:37:28.422Z,10.74
2023-03-20T00:38:29.089Z,10.75
2023-03-20T00:39:29.085Z,10.76
2023-03-20T00:40:28.382Z,10.77
2023-03-20T00:41:28.378Z,10.77
2023-03-20T00:42:29.052Z,10.78
2023-03-20T00:43:29.023Z,10.79
2023-03-20T00:44:29.039Z,10.80
2023-03-20T00:45:29.027Z,10.81
2023-03-20T00:46:28.401Z,10.82
2023-03-20T00:47:28.326Z,10.84
2023-03-20T00:48:28.976Z,10.86
2023-03-20T00:49:29.011Z,10.87
2023-03-20T00:50:28.965Z,10.89
2023-03-20T00:51:28.955Z,10.91
2023-03-20T00:52:28.947Z,10.93
2023-03-20T00:53:28.268Z,10.95
2023-03-20T00:54:28.932Z,10.97
2023-03-20T00:55:28.927Z,10.99
2023-03-20T00:56:28.895Z,11.01
2023-03-20T00:57:28.895Z,11.02
2023-03-20T00:58:28.207Z,11.04
2023-03-20T00:59:28.224Z,11.06
2023-03-20T01:00:28.233Z,11.09
2023-03-20T01:01:28.149Z,11.10
2023-03-20T01:02:29.206Z,11.12
2023-03-20T01:03:28.798Z,11.13
2023-03-20T01:04:28.810Z,11.15
2023-03-20T01:05:28.138Z,11.16
2023-03-20T01:06:28.118Z,11.17
2023-03-20T01:07:28.820Z,11.19
2023-03-20T01:08:28.750Z,11.20
2023-03-20T01:09:28.070Z,11.21
2023-03-20T01:10:28.077Z,11.22
2023-03-20T01:11:28.730Z,11.24
2023-03-20T01:12:28.739Z,11.24
2023-03-20T01:13:28.703Z,11.25
2023-03-20T01:14:28.704Z,11.24
2023-03-20T01:15:27.997Z,11.23
2023-03-20T01:16:28.708Z,11.21
2023-03-20T01:17:28.016Z,11.20
2023-03-20T01:18:28.022Z,11.18
2023-03-20T01:19:27.971Z,11.16
2023-03-20T01:20:28.628Z,11.16
2023-03-20T01:21:27.953Z,11.14
2023-03-20T01:22:28.611Z,11.13
2023-03-20T01:23:28.596Z,11.14
2023-03-20T01:24:28.589Z,11.14
2023-03-20T01:25:28.591Z,11.14
2023-03-20T01:26:27.869Z,11.16
2023-03-20T01:27:27.880Z,11.17
2023-03-20T01:28:28.542Z,11.17
2023-03-20T01:29:28.532Z,11.19
2023-03-20T01:30:28.523Z,11.19
2023-03-20T01:31:28.541Z,11.22
2023-03-20T01:32:28.501Z,11.22
2023-03-20T01:33:28.491Z,11.23
2023-03-20T01:34:28.152Z,11.25
2023-03-20T01:35:28.487Z,11.26
2023-03-20T01:36:27.793Z,11.28
2023-03-20T01:37:28.454Z,11.29
2023-03-20T01:38:28.421Z,11.31
2023-03-20T01:39:27.778Z,11.32
2023-03-20T01:40:28.421Z,11.33
2023-03-20T01:41:28.406Z,11.33
2023-03-20T01:42:28.390Z,11.34
2023-03-20T01:43:28.359Z,11.34
2023-03-20T01:44:28.374Z,11.34
2023-03-20T01:45:28.374Z,11.34
2023-03-20T01:46:27.687Z,11.35
2023-03-20T01:47:28.334Z,11.35
2023-03-20T01:48:28.305Z,11.36
2023-03-20T01:49:28.365Z,11.36
2023-03-20T01:50:27.625Z,11.36
2023-03-20T01:51:28.294Z,11.35
2023-03-20T01:52:28.290Z,11.35
2023-03-20T01:53:28.261Z,11.35
2023-03-20T01:54:28.266Z,11.34
2023-03-20T01:55:28.290Z,11.35
2023-03-20T01:56:28.238Z,11.36
2023-03-20T01:57:27.548Z,11.38
2023-03-20T01:58:28.209Z,11.37
2023-03-20T01:59:28.212Z,11.38
2023-03-20T02:00:28.190Z,11.37
2023-03-20T02:01:27.580Z,11.38
2023-03-20T02:02:27.520Z,11.39
2023-03-20T02:03:28.144Z,11.40
2023-03-20T02:04:27.524Z,11.42
2023-03-20T02:05:28.142Z,11.42
2023-03-20T02:06:28.130Z,11.43
2023-03-20T02:07:27.451Z,11.44
2023-03-20T02:08:28.096Z,11.45
2023-03-20T02:09:28.104Z,11.47
2023-03-20T02:10:28.083Z,11.48
2023-03-20T02:11:28.073Z,11.49
2023-03-20T02:12:27.388Z,11.50
2023-03-20T02:13:28.041Z,11.51
2023-03-20T02:14:28.041Z,11.53
2023-03-20T02:15:27.344Z,11.54
2023-03-20T02:16:28.053Z,11.56
2023-03-20T02:17:28.022Z,11.57
2023-03-20T02:18:27.994Z,11.59
2023-03-20T02:19:27.323Z,11.61
2023-03-20T02:20:27.400Z,11.63
2023-03-20T02:21:27.316Z,11.63
2023-03-20T02:22:27.961Z,11.64
2023-03-20T02:23:27.941Z,11.65
2023-03-20T02:24:27.951Z,11.65
2023-03-20T02:25:27.243Z,11.65
2023-03-20T02:26:27.277Z,11.65
2023-03-20T02:27:27.906Z,11.66
2023-03-20T02:28:27.234Z,11.66
2023-03-20T02:29:27.886Z,11.66
2023-03-20T02:30:27.191Z,11.64
2023-03-20T02:31:27.864Z,11.64
2023-03-20T02:32:27.855Z,11.64
2023-03-20T02:33:27.856Z,11.64
2023-03-20T02:34:27.815Z,11.64
2023-03-20T02:35:27.827Z,11.63
2023-03-20T02:36:27.114Z,11.63
2023-03-20T02:37:27.804Z,11.63
2023-03-20T02:38:27.099Z,11.63
2023-03-20T02:39:27.774Z,11.63
2023-03-20T02:40:27.779Z,11.63
2023-03-20T02:41:27.152Z,11.63
2023-03-20T02:42:27.070Z,11.64
2023-03-20T02:43:27.736Z,11.64
2023-03-20T02:44:27.066Z,11.64
2023-03-20T02:45:27.718Z,11.65
2023-03-20T02:46:27.768Z,11.64
2023-03-20T02:47:27.007Z,11.64
2023-03-20T02:48:26.996Z,11.64
2023-03-20T02:49:27.647Z,11.64
2023-03-20T02:50:27.662Z,11.63
2023-03-20T02:51:27.657Z,11.63
2023-03-20T02:52:27.645Z,11.63
2023-03-20T02:53:26.967Z,11.62
2023-03-20T02:54:26.936Z,11.63
2023-03-20T02:55:27.611Z,11.62
2023-03-20T02:56:27.594Z,11.61
2023-03-20T02:57:27.580Z,11.61
2023-03-20T02:58:27.571Z,11.61
2023-03-20T02:59:26.894Z,11.60
2023-03-20T03:00:26.869Z,11.61
2023-03-20T03:01:26.882Z,11.59
2023-03-20T03:02:27.660Z,11.59
2023-03-20T03:03:27.536Z,11.57
2023-03-20T03:04:27.490Z,11.56
2023-03-20T03:05:26.810Z,11.56
2023-03-20T03:06:27.483Z,11.56
2023-03-20T03:07:27.498Z,11.56
2023-03-20T03:08:27.463Z,11.56
2023-03-20T03:09:27.435Z,11.55
2023-03-20T03:10:27.444Z,11.55
2023-03-20T03:11:26.733Z,11.54
2023-03-20T03:12:27.413Z,11.55
2023-03-20T03:13:26.743Z,11.55
2023-03-20T03:14:27.374Z,11.54
2023-03-20T03:15:27.386Z,11.54
2023-03-20T03:16:26.715Z,11.54
2023-03-20T03:17:26.684Z,11.54
2023-03-20T03:18:27.358Z,11.53
2023-03-20T03:19:27.324Z,11.52
2023-03-20T03:20:27.336Z,11.51
2023-03-20T03:21:27.325Z,11.53
2023-03-20T03:22:26.623Z,11.52
2023-03-20T03:23:26.624Z,11.52
2023-03-20T03:24:39.794Z,11.52
2023-03-20T03:25:29.028Z,11.52
2023-03-20T03:26:27.270Z,11.52
2023-03-20T03:27:27.276Z,11.51
2023-03-20T03:28:26.573Z,11.51
2023-03-20T03:29:27.219Z,11.50
2023-03-20T03:30:27.225Z,11.50
2023-03-20T03:31:27.264Z,11.50
2023-03-20T03:32:27.215Z,11.50
2023-03-20T03:33:27.186Z,11.50
2023-03-20T03:34:27.174Z,11.50
2023-03-20T03:35:26.487Z,11.50
2023-03-20T03:36:27.157Z,11.49
2023-03-20T03:37:26.491Z,11.50
2023-03-20T03:38:26.465Z,11.49
2023-03-20T03:39:26.500Z,11.51
2023-03-20T03:40:27.124Z,11.51
2023-03-20T03:41:27.112Z,11.51
2023-03-20T03:42:27.102Z,11.51
2023-03-20T03:43:27.082Z,11.51
2023-03-20T03:44:26.421Z,11.51
2023-03-20T03:45:27.072Z,11.51
2023-03-20T03:46:26.399Z,11.52
2023-03-20T03:47:27.039Z,11.52
2023-03-20T03:48:27.029Z,11.51
2023-03-20T03:49:26.999Z,11.51
2023-03-20T03:50:27.017Z,11.51
2023-03-20T03:51:26.303Z,11.51
2023-03-20T03:52:26.982Z,11.51
2023-03-20T03:53:26.313Z,11.50
2023-03-20T03:54:26.943Z,11.50
2023-03-20T03:55:26.956Z,11.50
2023-03-20T03:56:26.951Z,11.50
2023-03-20T03:57:26.294Z,11.49
2023-03-20T03:58:26.427Z,11.49
2023-03-20T03:59:26.897Z,11.48
2023-03-20T04:00:26.288Z,11.48
2023-03-20T04:01:26.914Z,11.48
2023-03-20T04:02:26.880Z,11.48
2023-03-20T04:03:26.175Z,11.46
2023-03-20T04:04:26.257Z,11.45
2023-03-20T04:05:26.846Z,11.45
2023-03-20T04:06:26.846Z,11.43
2023-03-20T04:07:26.839Z,11.43
2023-03-20T04:08:26.818Z,11.43
2023-03-20T04:09:26.166Z,11.43
2023-03-20T04:10:26.295Z,11.42
2023-03-20T04:11:27.237Z,11.41
2023-03-20T04:12:27.100Z,11.40
2023-03-20T04:13:26.759Z,11.40
2023-03-20T04:14:26.151Z,11.39
2023-03-20T04:15:26.741Z,11.39
2023-03-20T04:16:26.849Z,11.38
2023-03-20T04:17:27.714Z,11.38
2023-03-20T04:18:26.836Z,11.37
2023-03-20T04:19:27.016Z,11.37
2023-03-20T04:20:26.705Z,11.38
2023-03-20T04:21:26.942Z,11.37
2023-03-20T04:22:26.664Z,11.37
2023-03-20T04:23:26.655Z,11.37
2023-03-20T04:24:26.630Z,11.37
2023-03-20T04:25:26.630Z,11.37
2023-03-20T04:26:26.623Z,11.37
2023-03-20T04:27:26.617Z,11.37
2023-03-20T04:28:25.934Z,11.37
2023-03-20T04:29:25.934Z,11.37
2023-03-20T04:30:25.937Z,11.37
2023-03-20T04:31:26.590Z,11.37
2023-03-20T04:32:26.816Z,11.37
2023-03-20T04:33:26.544Z,11.36
2023-03-20T04:34:26.516Z,11.36
2023-03-20T04:35:26.530Z,11.36
2023-03-20T04:36:26.518Z,11.34
2023-03-20T04:37:26.506Z,11.35
2023-03-20T04:38:25.814Z,11.35
2023-03-20T04:39:25.828Z,11.34
2023-03-20T04:40:26.473Z,11.34
2023-03-20T04:41:26.457Z,11.33
2023-03-20T04:42:26.446Z,11.34
2023-03-20T04:43:26.437Z,11.32
2023-03-20T04:44:26.706Z,11.31
2023-03-20T04:45:26.648Z,11.30
2023-03-20T04:46:26.489Z,11.29
2023-03-20T04:47:26.398Z,11.28
2023-03-20T04:48:26.392Z,11.27
2023-03-20T04:49:26.357Z,11.28
2023-03-20T04:50:26.358Z,11.27
2023-03-20T04:51:26.358Z,11.27
2023-03-20T04:52:26.341Z,11.27
2023-03-20T04:53:27.278Z,11.27
2023-03-20T04:54:26.299Z,11.27
2023-03-20T04:55:26.296Z,11.26
2023-03-20T04:56:26.521Z,11.26
2023-03-20T04:57:26.553Z,11.25
2023-03-20T04:58:26.516Z,11.25
2023-03-20T04:59:26.252Z,11.26
2023-03-20T05:00:25.565Z,11.26
2023-03-20T05:01:26.316Z,11.27
2023-03-20T05:02:26.231Z,11.27
2023-03-20T05:03:26.221Z,11.26
2023-03-20T05:04:26.280Z,11.27
2023-03-20T05:05:26.213Z,11.26
2023-03-20T05:06:26.199Z,11.27
2023-03-20T05:07:25.503Z,11.25
2023-03-20T05:08:26.441Z,11.25
2023-03-20T05:09:26.142Z,11.25
2023-03-20T05:10:26.154Z,11.25
2023-03-20T05:11:27.412Z,11.24
2023-03-20T05:12:26.122Z,11.24
2023-03-20T05:13:26.120Z,11.24
2023-03-20T05:14:26.080Z,11.23
2023-03-20T05:15:26.092Z,11.23
2023-03-20T05:16:26.123Z,11.23
2023-03-20T05:17:26.310Z,11.23
2023-03-20T05:18:25.362Z,11.23
2023-03-20T05:19:26.029Z,11.23
2023-03-20T05:20:26.031Z,11.22
2023-03-20T05:21:25.334Z,11.23
2023-03-20T05:22:26.014Z,11.23
2023-03-20T05:23:26.249Z,11.24
2023-03-20T05:24:25.973Z,11.23
2023-03-20T05:25:27.225Z,11.22
2023-03-20T05:26:25.284Z,11.23
2023-03-20T05:27:25.303Z,11.23
2023-03-20T05:28:25.941Z,11.23
2023-03-20T05:29:25.271Z,11.22
2023-03-20T05:30:25.932Z,11.23
2023-03-20T05:31:25.290Z,11.23
2023-03-20T05:32:25.912Z,11.23
2023-03-20T05:33:25.896Z,11.23
2023-03-20T05:34:25.263Z,11.23
2023-03-20T05:35:25.844Z,11.23
2023-03-20T05:36:25.176Z,11.22
2023-03-20T05:37:25.173Z,11.23
2023-03-20T05:38:25.830Z,11.23
2023-03-20T05:39:25.795Z,11.22
2023-03-20T05:40:25.787Z,11.23
2023-03-20T05:41:25.796Z,11.22
2023-03-20T05:42:25.114Z,11.22
2023-03-20T05:43:25.774Z,11.21
2023-03-20T05:44:25.123Z,11.21
2023-03-20T05:45:25.750Z,11.21
2023-03-20T05:46:26.009Z,11.21
2023-03-20T05:47:26.325Z,11.20
2023-03-20T05:48:25.715Z,11.19
2023-03-20T05:49:25.707Z,11.18
2023-03-20T05:50:25.075Z,11.18
2023-03-20T05:51:25.725Z,11.18
2023-03-20T05:52:25.682Z,11.17
2023-03-20T05:53:25.019Z,11.17
2023-03-20T05:54:25.655Z,11.17
2023-03-20T05:55:25.626Z,11.16
2023-03-20T05:56:25.673Z,11.16
2023-03-20T05:57:25.919Z,11.17
2023-03-20T05:58:25.609Z,11.17
2023-03-20T05:59:25.601Z,11.16
2023-03-20T06:00:25.570Z,11.17
2023-03-20T06:01:25.580Z,11.17
2023-03-20T06:02:25.584Z,11.17
2023-03-20T06:03:25.639Z,11.17
2023-03-20T06:04:25.550Z,11.17
2023-03-20T06:05:24.881Z,11.17
2023-03-20T06:06:24.884Z,11.18
2023-03-20T06:07:25.518Z,11.18
2023-03-20T06:08:25.501Z,11.18
2023-03-20T06:09:25.497Z,11.18
2023-03-20T06:10:25.463Z,11.18
2023-03-20T06:11:25.480Z,11.18
2023-03-20T06:12:24.783Z,11.18
2023-03-20T06:13:24.804Z,11.18
2023-03-20T06:14:24.784Z,11.18
2023-03-20T06:15:24.774Z,11.17
2023-03-20T06:16:24.799Z,11.17
2023-03-20T06:17:24.718Z,11.17
2023-03-20T06:18:25.402Z,11.17
2023-03-20T06:19:25.387Z,11.17
2023-03-20T06:20:25.368Z,11.17
2023-03-20T06:21:25.365Z,11.18
2023-03-20T06:22:25.351Z,11.19
2023-03-20T06:23:25.344Z,11.19
2023-03-20T06:24:24.627Z,11.20
2023-03-20T06:25:25.305Z,11.22
2023-03-20T06:26:25.318Z,11.23
2023-03-20T06:27:24.619Z,11.25
2023-03-20T06:28:24.628Z,11.25
2023-03-20T06:29:24.596Z,11.25
2023-03-20T06:30:25.237Z,11.26
2023-03-20T06:31:25.267Z,11.25
2023-03-20T06:32:24.569Z,11.25
2023-03-20T06:33:24.556Z,11.24
2023-03-20T06:34:25.224Z,11.25
2023-03-20T06:35:24.566Z,11.23
2023-03-20T06:36:25.197Z,11.23
2023-03-20T06:37:25.220Z,11.22
2023-03-20T06:38:25.169Z,11.21
2023-03-20T06:39:24.507Z,11.20
2023-03-20T06:40:24.514Z,11.19
2023-03-20T06:41:34.345Z,11.20
2023-03-20T06:42:26.176Z,11.19
2023-03-20T06:43:25.144Z,11.17
2023-03-20T06:44:24.420Z,11.17
2023-03-20T06:45:24.426Z,11.18
2023-03-20T06:46:25.093Z,11.19
2023-03-20T06:47:25.071Z,11.21
2023-03-20T06:48:25.057Z,11.26
2023-03-20T06:49:25.082Z,11.30
2023-03-20T06:50:25.044Z,11.35
2023-03-20T06:51:25.026Z,11.39
2023-03-20T06:52:25.022Z,11.43
2023-03-20T06:53:25.002Z,11.47
2023-03-20T06:54:25.000Z,11.51
2023-03-20T06:55:24.974Z,11.55
2023-03-20T06:56:24.307Z,11.59
2023-03-20T06:57:24.302Z,11.63
2023-03-20T06:58:24.949Z,11.68
2023-03-20T06:59:24.269Z,11.73
2023-03-20T07:00:24.906Z,11.78
2023-03-20T07:01:24.996Z,11.82
2023-03-20T07:02:24.234Z,11.88
2023-03-20T07:03:24.898Z,11.95
2023-03-20T07:04:24.882Z,12.01
2023-03-20T07:05:24.894Z,12.07
2023-03-20T07:06:24.932Z,12.14
2023-03-20T07:07:24.154Z,12.24
2023-03-20T07:08:24.186Z,12.36
2023-03-20T07:09:24.865Z,12.47
2023-03-20T07:10:24.163Z,12.60
2023-03-20T07:11:24.820Z,12.70
2023-03-20T07:12:24.801Z,12.79
2023-03-20T07:13:24.097Z,12.86
2023-03-20T07:14:24.785Z,12.90
2023-03-20T07:15:24.767Z,12.92
2023-03-20T07:16:24.773Z,12.93
2023-03-20T07:17:24.758Z,12.93
2023-03-20T07:18:24.058Z,12.92
2023-03-20T07:19:24.730Z,12.92
2023-03-20T07:20:24.698Z,12.91
2023-03-20T07:21:24.702Z,12.90
2023-03-20T07:22:24.061Z,12.88
2023-03-20T07:23:24.693Z,12.85
2023-03-20T07:24:24.923Z,12.83
2023-03-20T07:25:35.398Z,12.81
2023-03-20T07:26:26.911Z,12.79
2023-03-20T07:27:23.961Z,12.78
2023-03-20T07:28:24.631Z,12.77
2023-03-20T07:29:24.612Z,12.78
2023-03-20T07:30:24.598Z,12.79
2023-03-20T07:31:24.640Z,12.81
2023-03-20T07:32:24.584Z,12.84
2023-03-20T07:33:24.599Z,12.86
2023-03-20T07:34:24.561Z,12.89
2023-03-20T07:35:24.553Z,12.91
2023-03-20T07:36:23.856Z,12.93
2023-03-20T07:37:24.533Z,12.96
2023-03-20T07:38:24.524Z,12.98
2023-03-20T07:39:24.512Z,13.02
2023-03-20T07:40:24.478Z,13.04
2023-03-20T07:41:24.490Z,13.07
2023-03-20T07:42:24.479Z,13.10
2023-03-20T07:43:23.828Z,13.13
2023-03-20T07:44:24.452Z,13.17
2023-03-20T07:45:24.421Z,13.20
2023-03-20T07:46:24.492Z,13.25
2023-03-20T07:47:23.723Z,13.27
2023-03-20T07:48:24.436Z,13.30
2023-03-20T07:49:23.711Z,13.33
2023-03-20T07:50:23.728Z,13.36
2023-03-20T07:51:24.372Z,13.39
2023-03-20T07:52:24.375Z,13.43
2023-03-20T07:53:24.350Z,13.45
2023-03-20T07:54:23.653Z,13.49
2023-03-20T07:55:24.353Z,13.54
2023-03-20T07:56:24.331Z,13.56
2023-03-20T07:57:24.305Z,13.57
2023-03-20T07:58:24.667Z,13.60
2023-03-20T07:59:24.282Z,13.60
2023-03-20T08:00:25.604Z,13.61
2023-03-20T08:01:23.603Z,13.62
2023-03-20T08:02:24.255Z,13.63
2023-03-20T08:03:23.720Z,13.63
2023-03-20T08:04:23.574Z,13.64
2023-03-20T08:05:24.504Z,13.65
2023-03-20T08:06:24.205Z,13.67
2023-03-20T08:07:23.572Z,13.71
2023-03-20T08:08:24.217Z,13.76
2023-03-20T08:09:24.230Z,13.80
2023-03-20T08:10:24.153Z,13.87
2023-03-20T08:11:23.475Z,13.95
2023-03-20T08:12:23.467Z,14.02
2023-03-20T08:13:23.482Z,14.11
2023-03-20T08:14:23.444Z,14.21
2023-03-20T08:15:23.459Z,14.29
2023-03-20T08:16:23.489Z,14.38
2023-03-20T08:17:23.575Z,14.47
2023-03-20T08:18:24.089Z,14.55
2023-03-20T08:19:24.070Z,14.62
2023-03-20T08:20:24.044Z,14.69
2023-03-20T08:21:23.350Z,14.76
2023-03-20T08:22:24.077Z,14.84
2023-03-20T08:23:23.362Z,14.93
2023-03-20T08:24:23.922Z,15.03
2023-03-20T08:25:23.433Z,15.12
2023-03-20T08:26:23.994Z,15.23
2023-03-20T08:27:23.988Z,15.35
2023-03-20T08:28:36.338Z,15.51
2023-03-20T08:29:25.213Z,15.67
2023-03-20T08:30:23.935Z,15.79
2023-03-20T08:31:23.945Z,15.92
2023-03-20T08:32:23.937Z,16.04
2023-03-20T08:33:23.926Z,16.16
2023-03-20T08:34:24.240Z,16.26
2023-03-20T08:35:32.854Z,16.37
2023-03-20T08:36:24.935Z,16.53
2023-03-20T08:37:23.881Z,16.75
2023-03-20T08:38:23.183Z,16.96
2023-03-20T08:39:23.198Z,17.13
2023-03-20T08:40:23.834Z,17.26
2023-03-20T08:41:23.831Z,17.45
2023-03-20T08:42:23.836Z,17.56
2023-03-20T08:43:23.817Z,17.75
2023-03-20T08:44:23.815Z,17.89
2023-03-20T08:45:23.768Z,17.99
2023-03-20T08:46:23.869Z,18.03
2023-03-20T08:47:23.080Z,18.11
2023-03-20T08:48:23.206Z,18.13
2023-03-20T08:49:23.737Z,18.16
2023-03-20T08:50:23.708Z,18.18
2023-03-20T08:51:23.727Z,18.22
2023-03-20T08:52:23.034Z,18.24
2023-03-20T08:53:23.706Z,18.20
2023-03-20T08:54:23.008Z,18.11
2023-03-20T08:55:23.649Z,18.04
2023-03-20T08:56:23.646Z,17.95
2023-03-20T08:57:22.981Z,17.84
2023-03-20T08:58:23.010Z,17.74
2023-03-20T08:59:23.651Z,17.64
2023-03-20T09:00:23.616Z,17.59
2023-03-20T09:01:23.665Z,17.54
2023-03-20T09:02:23.166Z,17.51
2023-03-20T09:03:23.594Z,17.51
2023-03-20T09:04:23.584Z,17.51
2023-03-20T09:05:23.580Z,17.47
2023-03-20T09:06:23.550Z,17.44
2023-03-20T09:07:23.557Z,17.40
2023-03-20T09:08:23.780Z,17.38
2023-03-20T09:09:22.860Z,17.35
2023-03-20T09:10:23.566Z,17.33
2023-03-20T09:11:23.496Z,17.33
2023-03-20T09:12:23.643Z,17.33
2023-03-20T09:13:27.533Z,17.34
2023-03-20T09:14:23.476Z,17.35
2023-03-20T09:15:23.469Z,17.35
2023-03-20T09:16:23.706Z,17.34
2023-03-20T09:17:23.445Z,17.30
2023-03-20T09:18:23.432Z,17.24
2023-03-20T09:19:23.590Z,17.22
2023-03-20T09:20:23.546Z,17.21
2023-03-20T09:21:23.558Z,17.19
2023-03-20T09:22:22.697Z,17.16
2023-03-20T09:23:23.610Z,17.09
2023-03-20T09:24:23.381Z,17.01
2023-03-20T09:25:22.674Z,16.94
2023-03-20T09:26:22.694Z,16.89
2023-03-20T09:27:23.338Z,16.82
2023-03-20T09:28:22.666Z,16.79
2023-03-20T09:29:23.311Z,16.76
2023-03-20T09:30:23.306Z,16.74
2023-03-20T09:31:23.405Z,16.71
2023-03-20T09:32:22.590Z,16.66
2023-03-20T09:33:23.272Z,16.62
2023-03-20T09:34:24.498Z,16.58
2023-03-20T09:35:24.491Z,16.54
2023-03-20T09:36:23.217Z,16.48
2023-03-20T09:37:22.541Z,16.41
2023-03-20T09:38:23.210Z,16.37
2023-03-20T09:39:22.547Z,16.34
2023-03-20T09:40:23.190Z,16.34
2023-03-20T09:41:23.170Z,16.33
2023-03-20T09:42:23.159Z,16.31
2023-03-20T09:43:22.479Z,16.30
2023-03-20T09:44:23.152Z,16.27
2023-03-20T09:45:24.384Z,16.25
2023-03-20T09:46:23.138Z,16.24
2023-03-20T09:47:24.393Z,16.23
2023-03-20T09:48:22.410Z,16.21
2023-03-20T09:49:23.091Z,16.20
2023-03-20T09:50:22.579Z,16.20
2023-03-20T09:51:22.422Z,16.20
2023-03-20T09:52:22.380Z,16.21
2023-03-20T09:53:22.364Z,16.23
2023-03-20T09:54:22.343Z,16.27
2023-03-20T09:55:23.083Z,16.31
2023-03-20T09:56:22.344Z,16.37
2023-03-20T09:57:23.002Z,16.41
2023-03-20T09:58:22.985Z,16.46
2023-03-20T09:59:22.984Z,16.51
2023-03-20T10:00:22.434Z,16.58
2023-03-20T10:01:22.321Z,16.65
2023-03-20T10:02:22.949Z,16.74
2023-03-20T10:03:22.962Z,16.85
2023-03-20T10:04:23.228Z,16.96
2023-03-20T10:05:22.215Z,17.07
2023-03-20T10:06:22.888Z,17.21
2023-03-20T10:07:22.893Z,17.31
2023-03-20T10:08:22.199Z,17.37
2023-03-20T10:09:22.884Z,17.46
2023-03-20T10:10:22.853Z,17.56
2023-03-20T10:11:22.829Z,17.66
2023-03-20T10:12:23.087Z,17.79
2023-03-20T10:13:22.167Z,17.90
2023-03-20T10:14:24.078Z,17.98
2023-03-20T10:15:22.806Z,18.05
2023-03-20T10:16:22.839Z,18.16
2023-03-20T10:17:22.097Z,18.29
2023-03-20T10:18:22.112Z,18.44
2023-03-20T10:19:22.099Z,18.57
2023-03-20T10:20:22.738Z,18.66
2023-03-20T10:21:22.723Z,18.75
2023-03-20T10:22:22.728Z,18.87
2023-03-20T10:23:22.036Z,18.98
2023-03-20T10:24:23.949Z,19.07
2023-03-20T10:25:22.162Z,19.15
2023-03-20T10:26:22.663Z,19.19
2023-03-20T10:27:22.677Z,19.25
2023-03-20T10:28:22.660Z,19.31
2023-03-20T10:29:22.662Z,19.40
2023-03-20T10:30:21.969Z,19.43
2023-03-20T10:31:22.650Z,19.47
2023-03-20T10:32:22.622Z,19.47
2023-03-20T10:33:21.921Z,19.45
2023-03-20T10:34:22.592Z,19.38
2023-03-20T10:35:22.581Z,19.32
2023-03-20T10:36:22.552Z,19.28
2023-03-20T10:37:22.567Z,19.25
2023-03-20T10:38:22.563Z,19.21
2023-03-20T10:39:22.855Z,19.22
2023-03-20T10:40:22.524Z,19.25
2023-03-20T10:41:21.866Z,19.28
2023-03-20T10:42:22.506Z,19.30
2023-03-20T10:43:22.502Z,19.37
2023-03-20T10:44:22.489Z,19.37
2023-03-20T10:45:22.468Z,19.41
2023-03-20T10:46:22.528Z,19.47
2023-03-20T10:47:22.484Z,19.51
2023-03-20T10:48:21.760Z,19.59
2023-03-20T10:49:22.484Z,19.65
2023-03-20T10:50:22.417Z,19.71
2023-03-20T10:51:22.416Z,19.75
2023-03-20T10:52:22.396Z,19.76
2023-03-20T10:53:21.709Z,19.74
2023-03-20T10:54:21.717Z,19.69
2023-03-20T10:55:22.358Z,19.62
2023-03-20T10:56:22.346Z,19.55
2023-03-20T10:57:22.352Z,19.49
2023-03-20T10:58:22.329Z,19.40
2023-03-20T10:59:21.674Z,19.28
2023-03-20T11:00:22.360Z,19.17
2023-03-20T11:01:22.351Z,19.02
2023-03-20T11:02:22.281Z,18.90
2023-03-20T11:03:21.581Z,18.78
2023-03-20T11:04:21.668Z,18.68
2023-03-20T11:05:22.273Z,18.59
2023-03-20T11:06:22.245Z,18.53
2023-03-20T11:07:22.252Z,18.46
2023-03-20T11:08:22.246Z,18.40
2023-03-20T11:09:22.211Z,18.31
2023-03-20T11:10:21.513Z,18.23
2023-03-20T11:11:21.537Z,18.13
2023-03-20T11:12:22.209Z,18.06
2023-03-20T11:13:22.199Z,17.97
2023-03-20T11:14:22.217Z,17.89
2023-03-20T11:15:21.466Z,17.79
2023-03-20T11:16:21.548Z,17.70
2023-03-20T11:17:22.171Z,17.62
2023-03-20T11:18:22.109Z,17.54
2023-03-20T11:19:22.113Z,17.47
2023-03-20T11:20:21.413Z,17.40
2023-03-20T11:21:21.421Z,17.35
2023-03-20T11:22:22.074Z,17.32
2023-03-20T11:23:22.061Z,17.29
2023-03-20T11:24:21.381Z,17.27
2023-03-20T11:25:22.042Z,17.24
2023-03-20T11:26:22.011Z,17.19
2023-03-20T11:27:21.342Z,17.20
2023-03-20T11:28:21.345Z,17.25
2023-03-20T11:29:21.322Z,17.30
2023-03-20T11:30:22.002Z,17.30
2023-03-20T11:31:22.079Z,17.28
2023-03-20T11:32:21.972Z,17.24
2023-03-20T11:33:21.953Z,17.21
2023-03-20T11:34:21.944Z,17.17
2023-03-20T11:35:22.221Z,17.09
2023-03-20T11:36:21.930Z,17.02
2023-03-20T11:37:21.886Z,16.97
2023-03-20T11:38:21.902Z,16.93
2023-03-20T11:39:21.882Z,16.91
2023-03-20T11:40:21.872Z,16.86
2023-03-20T11:41:21.844Z,16.85
2023-03-20T11:42:21.852Z,16.87
2023-03-20T11:43:21.850Z,16.94
2023-03-20T11:44:21.837Z,17.03
2023-03-20T11:45:21.142Z,17.08
2023-03-20T11:46:21.803Z,17.12
2023-03-20T11:47:21.793Z,17.11
2023-03-20T11:48:21.781Z,17.09
2023-03-20T11:49:21.777Z,17.02
2023-03-20T11:50:21.072Z,16.92
2023-03-20T11:51:21.082Z,16.82
2023-03-20T11:52:21.742Z,16.76
2023-03-20T11:53:21.740Z,16.69
2023-03-20T11:54:21.724Z,16.64
2023-03-20T11:55:21.016Z,16.59
2023-03-20T11:56:21.686Z,16.55
2023-03-20T11:57:20.993Z,16.53
2023-03-20T11:58:21.678Z,16.49
2023-03-20T11:59:21.667Z,16.45
2023-03-20T12:00:21.655Z,16.42
2023-03-20T12:01:21.631Z,16.34
2023-03-20T12:02:21.663Z,16.26
2023-03-20T12:03:21.001Z,16.15
2023-03-20T12:04:21.615Z,16.04
2023-03-20T12:05:21.602Z,15.96
2023-03-20T12:06:21.583Z,15.85
2023-03-20T12:07:20.903Z,15.75
2023-03-20T12:08:21.571Z,15.65
2023-03-20T12:09:21.564Z,15.57
2023-03-20T12:10:20.890Z,15.50
2023-03-20T12:11:21.512Z,15.43
2023-03-20T12:12:21.514Z,15.35
2023-03-20T12:13:20.839Z,15.28
2023-03-20T12:14:20.846Z,15.23
2023-03-20T12:15:21.492Z,15.20
2023-03-20T12:16:21.496Z,15.19
2023-03-20T12:17:21.463Z,15.19
2023-03-20T12:18:20.774Z,15.18
2023-03-20T12:19:21.454Z,15.17
2023-03-20T12:20:21.435Z,15.16
2023-03-20T12:21:20.745Z,15.15
2023-03-20T12:22:20.794Z,15.11
2023-03-20T12:23:21.411Z,15.08
2023-03-20T12:24:21.394Z,15.02
2023-03-20T12:25:21.375Z,14.98
2023-03-20T12:26:21.373Z,14.95
2023-03-20T12:27:21.343Z,14.90
2023-03-20T12:28:21.367Z,14.86
2023-03-20T12:29:21.339Z,14.81
2023-03-20T12:30:20.646Z,14.76
2023-03-20T12:31:21.344Z,14.73
2023-03-20T12:32:20.648Z,14.70
2023-03-20T12:33:21.301Z,14.67
2023-03-20T12:34:21.287Z,14.64
2023-03-20T12:35:20.582Z,14.63
2023-03-20T12:36:21.260Z,14.63
2023-03-20T12:37:20.580Z,14.64
2023-03-20T12:38:21.251Z,14.62
2023-03-20T12:39:21.236Z,14.61
2023-03-20T12:40:20.551Z,14.58
2023-03-20T12:41:20.620Z,14.54
2023-03-20T12:42:20.566Z,14.50
2023-03-20T12:43:21.191Z,14.46
2023-03-20T12:44:21.180Z,14.40
2023-03-20T12:45:21.180Z,14.36
2023-03-20T12:46:21.223Z,14.32
2023-03-20T12:47:20.510Z,14.26
2023-03-20T12:48:20.461Z,14.21
2023-03-20T12:49:21.120Z,14.16
2023-03-20T12:50:21.115Z,14.09
2023-03-20T12:51:21.106Z,14.02
2023-03-20T12:52:21.081Z,13.96